Time;durP1;ratioP1;P1;durP2;ratioP2;P2;SDS_P1;SDS_P2;PMS_P1;PMS_P2;Temp;Humidity;BMP_temperature;BMP_pressure;BME280_temperature;BME280_humidity;BME280_pressure;Samples;Min_cycle;Max_cycle;Signal;HPM_P1;HPM_P2
2023/04/12 00:00:10;;;;;;;29.23;17.48;;;7.70;99.90;;;;;;4916618;29;20028;-90
2023/04/12 00:02:37;;;;;;;32.75;18.35;;;7.80;99.90;;;;;;4916227;29;20052;-89
2023/04/12 00:05:04;;;;;;;44.95;21.27;;;7.90;99.90;;;;;;4916527;29;20064;-90
2023/04/12 00:07:31;;;;;;;37.47;20.27;;;8.10;99.90;;;;;;4916694;29;20032;-91
2023/04/12 00:09:57;;;;;;;39.80;21.50;;;8.10;99.90;;;;;;4916532;29;20111;-91
2023/04/12 00:12:24;;;;;;;37.38;20.08;;;8.20;99.90;;;;;;4916412;29;20382;-90
2023/04/12 00:14:51;;;;;;;34.58;21.23;;;8.30;99.90;;;;;;4916539;29;20057;-89
2023/04/12 00:17:18;;;;;;;32.30;19.85;;;8.30;99.90;;;;;;4916535;29;20115;-90
2023/04/12 00:19:46;;;;;;;32.95;18.83;;;8.30;99.90;;;;;;4916508;29;20036;-90
2023/04/12 00:22:12;;;;;;;33.60;17.65;;;8.30;99.90;;;;;;4916152;29;20024;-89
2023/04/12 00:24:40;;;;;;;28.13;17.20;;;8.30;99.90;;;;;;4900633;29;20043;-90
2023/04/12 00:27:07;;;;;;;31.10;17.48;;;8.30;99.90;;;;;;4900565;29;20032;-90
2023/04/12 00:29:35;;;;;;;31.67;16.55;;;8.30;99.90;;;;;;4900566;29;20122;-90
2023/04/12 00:32:04;;;;;;;30.33;15.98;;;8.30;99.90;;;;;;4900667;29;20038;-92
2023/04/12 00:34:30;;;;;;;27.90;17.02;;;8.30;99.90;;;;;;4900827;29;20028;-90
2023/04/12 00:36:57;;;;;;;46.85;26.42;;;8.30;99.90;;;;;;4900622;29;20048;-89
2023/04/12 00:39:27;;;;;;;42.05;22.90;;;8.30;99.90;;;;;;4900468;29;20158;-90
2023/04/12 00:41:56;;;;;;;39.92;21.67;;;8.30;99.90;;;;;;4900497;29;20025;-90
2023/04/12 00:44:22;;;;;;;31.58;19.42;;;8.30;99.90;;;;;;4905265;29;20058;-91
2023/04/12 00:46:49;;;;;;;35.42;20.60;;;8.20;99.90;;;;;;4919230;29;20031;-91
2023/04/12 00:49:16;;;;;;;40.88;23.25;;;8.20;99.90;;;;;;4919271;29;20485;-91
2023/04/12 00:51:43;;;;;;;44.75;26.08;;;8.20;99.90;;;;;;4920685;29;20370;-89
2023/04/12 00:54:12;;;;;;;50.42;28.20;;;8.20;99.90;;;;;;4922788;29;20027;-89
2023/04/12 00:56:40;;;;;;;52.13;30.17;;;8.10;99.90;;;;;;4922708;29;20059;-89
2023/04/12 00:59:07;;;;;;;51.28;28.08;;;8.20;99.90;;;;;;4922618;29;20174;-90
2023/04/12 01:01:33;;;;;;;51.03;29.17;;;8.20;99.90;;;;;;4922393;29;20059;-89
2023/04/12 01:04:03;;;;;;;49.03;28.48;;;8.20;99.90;;;;;;4922504;29;20441;-89
2023/04/12 01:06:49;;;;;;;47.95;28.10;;;8.20;99.90;;;;;;4922407;29;20028;-90
2023/04/12 01:09:29;;;;;;;48.78;29.23;;;8.20;99.90;;;;;;4922957;29;20042;-90
2023/04/12 01:12:17;;;;;;;47.22;28.50;;;8.20;99.90;;;;;;4922397;29;20066;-91
2023/04/12 01:14:56;;;;;;;45.90;26.60;;;8.20;99.90;;;;;;4922472;29;20032;-91
2023/04/12 01:17:29;;;;;;;40.92;25.80;;;8.20;99.90;;;;;;4922428;29;20032;-90
2023/04/12 01:20:15;;;;;;;45.37;26.63;;;8.20;99.90;;;;;;4922417;29;20028;-89
2023/04/12 01:23:07;;;;;;;45.30;25.63;;;8.20;99.90;;;;;;4922144;29;20039;-91
2023/04/12 01:26:03;;;;;;;40.63;24.60;;;8.20;99.90;;;;;;4922363;29;20131;-91
2023/04/12 01:28:33;;;;;;;37.67;20.83;;;8.30;99.90;;;;;;4831468;29;20538;-90
2023/04/12 01:31:05;;;;;;;30.92;19.92;;;8.30;99.90;;;;;;4862210;29;20045;-91
2023/04/12 01:33:35;;;;;;;37.55;20.58;;;8.30;99.90;;;;;;4861786;29;20045;-90
2023/04/12 01:36:08;;;;;;;29.67;18.00;;;8.30;99.90;;;;;;4862298;29;20038;-89
2023/04/12 01:38:35;;;;;;;33.28;18.13;;;8.30;99.90;;;;;;4862141;29;20538;-90
2023/04/12 01:41:01;;;;;;;30.52;16.63;;;8.30;99.90;;;;;;4861899;29;20033;-90
2023/04/12 01:43:28;;;;;;;29.45;17.50;;;8.30;99.90;;;;;;4861712;29;20140;-90
2023/04/12 01:45:58;;;;;;;27.98;16.02;;;8.40;99.90;;;;;;4846197;29;20045;-91
2023/04/12 02:03:33;;;;;;;35.50;17.08;;;8.90;99.90;;;;;;4861289;29;20105;-92
2023/04/12 02:06:02;;;;;;;33.05;16.20;;;9.00;99.90;;;;;;4910327;29;20477;-93
2023/04/12 02:08:29;;;;;;;30.45;15.65;;;9.00;99.90;;;;;;4921385;29;20039;-91
2023/04/12 02:10:59;;;;;;;35.20;16.48;;;9.00;99.90;;;;;;4921387;29;20035;-91
2023/04/12 02:13:26;;;;;;;31.02;16.50;;;9.00;99.90;;;;;;4921477;29;20036;-91
2023/04/12 02:15:53;;;;;;;32.33;17.30;;;9.00;99.90;;;;;;4921336;29;20492;-92
2023/04/12 02:18:20;;;;;;;33.45;16.55;;;9.10;99.90;;;;;;4921328;29;20485;-90
2023/04/12 02:20:48;;;;;;;30.02;16.88;;;9.10;99.90;;;;;;4921161;29;20500;-90
2023/04/12 02:23:15;;;;;;;30.52;16.67;;;9.10;99.90;;;;;;4921095;29;20378;-91
2023/04/12 02:25:45;;;;;;;34.42;17.15;;;9.10;99.90;;;;;;4905532;29;20054;-91
2023/04/12 02:28:14;;;;;;;28.75;16.25;;;9.10;99.90;;;;;;4921019;29;20043;-92
2023/04/12 02:30:44;;;;;;;29.65;16.80;;;9.20;99.90;;;;;;4921097;29;20028;-91
2023/04/12 02:33:12;;;;;;;33.05;16.02;;;9.20;99.90;;;;;;4921210;29;20040;-90
2023/04/12 02:35:41;;;;;;;32.78;15.93;;;9.20;99.90;;;;;;4921351;29;20039;-90
2023/04/12 02:38:12;;;;;;;31.58;16.02;;;9.20;99.90;;;;;;4920872;29;20031;-90
2023/04/12 02:40:41;;;;;;;27.67;16.10;;;9.20;99.90;;;;;;4921049;29;20059;-92
2023/04/12 02:43:11;;;;;;;30.48;16.50;;;9.20;99.90;;;;;;4920990;29;20028;-91
2023/04/12 02:45:42;;;;;;;30.73;16.17;;;9.20;99.90;;;;;;4920987;29;20054;-92
2023/04/12 02:48:10;;;;;;;33.33;17.05;;;9.10;99.90;;;;;;4920527;29;20034;-88
2023/04/12 02:50:37;;;;;;;30.60;17.05;;;9.10;99.90;;;;;;4920639;29;20050;-90
2023/04/12 02:53:18;;;;;;;31.83;17.35;;;9.10;99.90;;;;;;4912535;29;20072;-92
2023/04/12 02:55:53;;;;;;;35.60;16.50;;;9.10;99.90;;;;;;4902610;29;20035;-91
2023/04/12 02:58:24;;;;;;;34.17;16.63;;;9.10;99.90;;;;;;4902057;29;20032;-90
2023/04/12 03:00:53;;;;;;;34.58;17.67;;;9.00;99.90;;;;;;4917083;29;20553;-92
2023/04/12 03:03:27;;;;;;;34.88;17.52;;;9.00;99.90;;;;;;4902231;29;20123;-90
2023/04/12 03:05:58;;;;;;;31.00;16.83;;;8.90;99.90;;;;;;4901921;29;20083;-90
2023/04/12 03:08:26;;;;;;;30.70;16.00;;;8.90;99.90;;;;;;4901520;29;20057;-90
2023/04/12 03:10:57;;;;;;;30.02;16.15;;;8.90;99.90;;;;;;4901718;29;20036;-90
2023/04/12 03:13:25;;;;;;;32.70;16.80;;;8.90;99.90;;;;;;4901228;29;20118;-89
2023/04/12 03:15:57;;;;;;;31.58;17.35;;;8.80;99.90;;;;;;4901351;29;20296;-90
2023/04/12 03:18:31;;;;;;;29.20;16.77;;;8.80;99.90;;;;;;4897929;29;20478;-90
2023/04/12 03:21:01;;;;;;;35.80;16.23;;;8.80;99.90;;;;;;4867012;29;20513;-92
2023/04/12 03:23:29;;;;;;;32.75;16.50;;;8.80;99.90;;;;;;4867279;29;20036;-90
2023/04/12 03:26:08;;;;;;;33.28;16.35;;;8.70;99.90;;;;;;4868344;29;20071;-90
2023/04/12 03:28:35;;;;;;;30.92;16.55;;;8.70;99.90;;;;;;4867076;29;20032;-89
2023/04/12 03:31:09;;;;;;;28.55;16.38;;;8.70;99.90;;;;;;4867357;29;20052;-89
2023/04/12 03:33:56;;;;;;;28.55;15.27;;;8.70;99.90;;;;;;4882534;29;20081;-91
2023/04/12 03:36:26;;;;;;;29.30;16.13;;;8.70;99.90;;;;;;4867069;29;20037;-92
2023/04/12 03:39:01;;;;;;;34.40;16.77;;;8.70;99.90;;;;;;4897140;29;20035;-90
2023/04/12 03:41:31;;;;;;;27.45;15.23;;;8.70;99.90;;;;;;4867302;29;20052;-92
2023/04/12 03:44:02;;;;;;;30.42;15.85;;;8.70;99.90;;;;;;4869106;29;20051;-93
2023/04/12 03:46:31;;;;;;;32.63;16.67;;;8.70;99.90;;;;;;4885653;29;20036;-91
2023/04/12 03:49:03;;;;;;;30.23;14.95;;;8.70;99.90;;;;;;4885984;29;20119;-90
2023/04/12 03:51:32;;;;;;;31.52;15.25;;;8.70;99.90;;;;;;4885774;29;20024;-91
2023/04/12 03:54:03;;;;;;;27.08;14.85;;;8.70;99.90;;;;;;4885843;29;20028;-91
2023/04/12 03:56:39;;;;;;;24.45;15.40;;;8.60;99.90;;;;;;4886607;29;20048;-91
2023/04/12 03:59:13;;;;;;;27.92;15.30;;;8.60;99.90;;;;;;4886162;29;20032;-92
2023/04/12 04:01:45;;;;;;;26.27;16.02;;;8.60;99.90;;;;;;4885506;29;20064;-91
2023/04/12 04:04:11;;;;;;;26.15;15.20;;;8.50;99.90;;;;;;4885300;29;20486;-91
2023/04/12 04:06:39;;;;;;;26.83;15.73;;;8.60;99.90;;;;;;4885379;29;20152;-91
2023/04/12 04:09:07;;;;;;;24.75;14.82;;;8.60;99.90;;;;;;4885207;29;20028;-92
2023/04/12 04:11:36;;;;;;;28.02;15.32;;;8.60;99.90;;;;;;4885866;29;20501;-91
2023/04/12 04:14:07;;;;;;;27.08;14.95;;;8.60;99.90;;;;;;4885528;29;20032;-92
2023/04/12 04:16:34;;;;;;;27.27;15.23;;;8.60;99.90;;;;;;4885367;29;20028;-91
2023/04/12 04:19:04;;;;;;;25.75;14.68;;;8.60;99.90;;;;;;4885466;29;20036;-91
2023/04/12 04:21:31;;;;;;;25.90;14.90;;;8.70;99.90;;;;;;4885403;29;20032;-92
2023/04/12 04:24:05;;;;;;;26.02;16.00;;;8.70;99.90;;;;;;4885339;29;20043;-90
2023/04/12 04:26:38;;;;;;;24.58;15.63;;;8.80;99.90;;;;;;4889140;29;20058;-92
2023/04/12 04:29:11;;;;;;;26.15;15.82;;;8.80;99.90;;;;;;4889636;29;20510;-93
2023/04/12 04:31:39;;;;;;;24.63;14.18;;;8.80;99.90;;;;;;4889036;29;20547;-91
2023/04/12 04:34:07;;;;;;;26.48;14.77;;;8.80;99.90;;;;;;4914420;29;20111;-92
2023/04/12 04:36:40;;;;;;;28.50;15.02;;;8.80;99.90;;;;;;4922913;29;20119;-92
2023/04/12 04:39:07;;;;;;;24.00;14.27;;;8.80;99.90;;;;;;4923176;29;20032;-92
2023/04/12 04:41:43;;;;;;;25.83;15.18;;;8.90;99.90;;;;;;4923170;29;20516;-91
2023/04/12 04:44:17;;;;;;;23.58;14.60;;;8.90;99.90;;;;;;4923310;29;20115;-92
2023/04/12 04:46:52;;;;;;;26.67;14.30;;;9.00;99.90;;;;;;4922851;29;20027;-90
2023/04/12 04:49:19;;;;;;;26.58;15.23;;;9.00;99.90;;;;;;4923223;29;20123;-91
2023/04/12 04:51:47;;;;;;;24.95;15.02;;;9.10;99.90;;;;;;4924154;29;20027;-91
2023/04/12 04:54:15;;;;;;;33.28;15.82;;;9.10;99.90;;;;;;4921612;29;20063;-92
2023/04/12 04:56:42;;;;;;;26.98;15.38;;;9.30;99.90;;;;;;4922795;29;20034;-90
2023/04/12 04:59:11;;;;;;;24.75;16.42;;;9.40;99.90;;;;;;4922343;29;20038;-91
2023/04/12 05:01:39;;;;;;;27.58;16.02;;;9.70;99.90;;;;;;4922881;29;20028;-91
2023/04/12 05:04:06;;;;;;;24.80;15.73;;;10.00;99.90;;;;;;4938377;29;20563;-91
2023/04/12 05:06:33;;;;;;;23.20;15.30;;;10.70;99.90;;;;;;4922746;29;20485;-92
2023/04/12 05:09:01;;;;;;;24.83;17.25;;;11.50;99.90;;;;;;4922923;29;20035;-94
2023/04/12 05:11:32;;;;;;;25.48;20.50;;;12.10;99.90;;;;;;4923558;29;20034;-93
2023/04/12 05:13:59;;;;;;;28.40;21.48;;;13.00;99.90;;;;;;4918020;29;20028;-92
2023/04/12 08:52:14;;;;;;;27.00;25.00;;;21.10;99.90;;;;;;6066546;23;20017;31
2023/04/12 08:54:41;;;;;;;25.70;24.05;;;20.70;99.90;;;;;;4905488;29;20134;-92
2023/04/12 09:00:07;;;;;;;26.48;24.67;;;20.80;99.90;;;;;;4901759;29;20111;-94
2023/04/12 09:02:36;;;;;;;25.80;24.30;;;20.90;99.90;;;;;;4880708;29;20036;-94
2023/04/12 09:05:05;;;;;;;26.33;24.67;;;20.70;99.90;;;;;;4881985;29;20033;-93
2023/04/12 09:07:32;;;;;;;25.85;23.95;;;20.50;99.90;;;;;;4881868;29;20033;-93
2023/04/12 09:09:58;;;;;;;26.20;24.38;;;20.70;99.90;;;;;;4882225;29;20134;-92
2023/04/12 09:12:29;;;;;;;26.40;24.70;;;21.00;99.90;;;;;;4882061;29;20025;-92
2023/04/12 09:18:10;;;;;;;27.15;25.42;;;21.10;99.90;;;;;;5051434;23;20051;-94
2023/04/12 09:20:38;;;;;;;28.27;26.05;;;20.70;99.90;;;;;;4964000;28;20035;-94
2023/04/12 09:23:29;;;;;;;27.00;25.17;;;20.40;99.90;;;;;;4952149;28;20030;-93
2023/04/12 09:25:57;;;;;;;27.30;25.35;;;19.80;99.90;;;;;;5155288;23;20142;-94
2023/04/12 09:28:46;;;;;;;26.60;24.75;;;19.90;99.90;;;;;;4948515;28;20177;-94
2023/04/12 09:31:23;;;;;;;26.42;24.60;;;20.00;99.90;;;;;;4963405;28;20444;-93
2023/04/12 09:33:50;;;;;;;26.77;25.08;;;20.20;99.90;;;;;;4961702;28;20038;-93
2023/04/12 09:36:19;;;;;;;26.52;24.92;;;20.20;99.90;;;;;;4945550;28;20054;-92
2023/04/12 09:39:13;;;;;;;26.27;24.60;;;20.40;99.90;;;;;;4981203;23;20055;-93
2023/04/12 09:46:12;;;;;;;26.38;24.38;;;20.90;99.90;;;;;;4957902;23;20074;-95
2023/04/12 09:48:59;;;;;;;27.15;24.95;;;21.30;99.90;;;;;;4941747;29;20027;-93
2023/04/12 09:51:50;;;;;;;26.50;24.67;;;21.40;99.90;;;;;;4925597;29;20110;-94
2023/04/12 09:54:17;;;;;;;27.25;25.10;;;21.40;99.90;;;;;;4925266;29;20031;-92
2023/04/12 09:56:44;;;;;;;26.80;24.58;;;21.10;99.90;;;;;;4925010;29;20106;-93
2023/04/12 09:59:12;;;;;;;26.02;23.95;;;21.10;99.90;;;;;;4925498;29;20031;-93
2023/04/12 10:01:41;;;;;;;26.30;24.10;;;21.00;99.90;;;;;;4925403;29;20032;-94
2023/04/12 10:04:08;;;;;;;26.20;24.27;;;20.70;99.90;;;;;;4925160;29;20039;-92
2023/04/12 10:06:40;;;;;;;26.27;24.35;;;20.90;99.90;;;;;;4924965;29;20027;-93
2023/04/12 10:09:07;;;;;;;26.30;24.40;;;21.00;99.90;;;;;;4925802;29;20031;-92
2023/04/12 10:11:34;;;;;;;26.52;24.48;;;21.30;99.90;;;;;;4925371;29;20034;-93
2023/04/12 10:14:05;;;;;;;26.17;24.48;;;20.80;99.90;;;;;;4924765;29;20034;-93
2023/04/12 10:16:33;;;;;;;26.90;24.92;;;20.40;99.90;;;;;;4924699;29;20098;-93
2023/04/12 10:19:03;;;;;;;25.92;24.23;;;20.60;99.90;;;;;;4924825;29;20031;-93
2023/04/12 10:21:30;;;;;;;26.13;24.35;;;20.90;99.90;;;;;;4925067;29;20039;-93
2023/04/12 10:23:57;;;;;;;25.70;23.90;;;20.90;99.90;;;;;;4924375;29;20063;-94
2023/04/12 10:26:27;;;;;;;25.50;23.90;;;21.00;99.90;;;;;;4924762;29;20028;-94
2023/04/12 10:29:23;;;;;;;26.38;24.05;;;21.20;99.90;;;;;;4924810;29;20038;-92
2023/04/12 10:31:49;;;;;;;26.00;24.10;;;20.90;99.90;;;;;;4924394;29;20109;-92
2023/04/12 10:34:16;;;;;;;25.77;24.13;;;20.50;99.90;;;;;;4924267;29;20027;-93
2023/04/12 10:49:24;;;;;;;26.27;24.48;;;20.60;99.90;;;;;;6074701;23;21061;-94
2023/04/12 11:17:33;;;;;;;26.58;24.38;;;21.00;99.90;;;;;;5044133;23;20479;-92
2023/04/12 11:20:01;;;;;;;26.33;24.40;;;20.90;99.90;;;;;;4943337;28;20054;-94
2023/04/12 11:22:30;;;;;;;26.60;24.80;;;21.10;99.90;;;;;;4940318;29;20048;-91
2023/04/12 11:24:58;;;;;;;25.20;23.60;;;20.80;99.90;;;;;;4939636;29;20073;-91
2023/04/12 11:27:26;;;;;;;25.35;23.67;;;20.80;99.90;;;;;;4923209;29;20027;-91
2023/04/12 11:29:56;;;;;;;25.35;23.60;;;20.90;99.90;;;;;;4923396;29;20060;-93
2023/04/12 11:32:28;;;;;;;25.70;24.00;;;21.20;99.90;;;;;;4939556;29;20031;-92
2023/04/12 11:34:56;;;;;;;25.80;24.10;;;21.40;99.90;;;;;;4939082;29;20113;-93
2023/04/12 11:37:25;;;;;;;25.10;23.40;;;21.40;99.90;;;;;;4923362;29;20082;-92
2023/04/12 11:39:57;;;;;;;25.48;23.85;;;21.50;99.90;;;;;;4939646;29;20035;-91
2023/04/12 11:42:25;;;;;;;25.38;23.77;;;21.50;99.90;;;;;;4939346;29;20058;-92
2023/04/12 11:44:52;;;;;;;25.50;23.65;;;21.60;99.90;;;;;;4923108;29;20145;-93
2023/04/12 11:47:21;;;;;;;24.98;23.23;;;21.30;99.90;;;;;;4923303;29;20397;-94
2023/04/12 11:49:57;;;;;;;25.45;23.30;;;21.40;99.90;;;;;;4923472;29;20050;-93
2023/04/12 11:52:32;;;;;;;25.25;23.45;;;21.20;99.90;;;;;;4923796;29;20388;-94
2023/04/12 11:55:03;;;;;;;25.70;23.90;;;21.10;99.90;;;;;;4939664;29;20050;-93
2023/04/12 11:57:30;;;;;;;24.48;22.85;;;21.00;99.90;;;;;;4923261;29;20046;-93
2023/04/12 12:00:04;;;;;;;24.83;23.33;;;21.10;99.90;;;;;;4940238;29;20023;-94
2023/04/12 12:02:38;;;;;;;25.15;23.55;;;21.40;99.90;;;;;;4939836;29;20500;-93
2023/04/12 12:05:07;;;;;;;24.40;22.92;;;21.50;99.90;;;;;;4938822;29;20032;-94
2023/04/12 12:07:35;;;;;;;25.67;23.88;;;21.50;99.90;;;;;;4923645;29;20436;-92
2023/04/12 12:10:15;;;;;;;25.38;23.63;;;21.40;99.90;;;;;;4939262;29;20098;-93
2023/04/12 12:12:45;;;;;;;25.80;23.30;;;21.30;99.90;;;;;;4940776;29;20028;-93
2023/04/12 12:15:16;;;;;;;25.33;23.27;;;21.20;99.90;;;;;;4923479;29;20039;-92
2023/04/12 12:17:50;;;;;;;25.83;23.63;;;21.10;99.90;;;;;;4923589;28;20071;-92
2023/04/12 12:20:20;;;;;;;25.60;23.38;;;21.20;99.90;;;;;;4955155;29;20043;-93
2023/04/12 12:26:02;;;;;;;25.60;23.80;;;21.20;99.90;;;;;;4978548;28;20162;-94
2023/04/12 13:28:23;;;;;;;25.25;23.55;;;22.00;99.90;;;;;;5938780;23;20030;31
2023/04/12 13:33:54;;;;;;;25.20;23.25;;;22.20;99.90;;;;;;5924601;23;20856;-94
2023/04/12 14:56:29;;;;;;;19.92;18.33;;;18.30;99.90;;;;;;5079865;23;20052;-94
2023/04/12 15:00:15;;;;;;;19.90;18.30;;;18.30;99.90;;;;;;4933084;29;20060;-93
2023/04/12 15:09:57;;;;;;;20.15;18.67;;;18.70;99.90;;;;;;4893889;23;20047;-93
2023/04/12 15:13:48;;;;;;;;;;;;;;;;;;;;;
2023/04/12 15:26:51;;;;;;;22.00;19.83;;;18.20;99.90;;;;;;4971379;29;20071;-92
2023/04/12 15:30:00;;;;;;;21.85;19.90;;;18.30;99.90;;;;;;4960984;29;20054;-92
2023/04/12 15:33:17;;;;;;;;;;;;;;;;;;;;;
2023/04/12 15:36:19;;;;;;;20.65;18.83;;;17.70;99.90;;;;;;4872992;29;20045;-94
2023/04/12 15:39:30;;;;;;;21.23;19.40;;;17.60;99.90;;;;;;4876081;29;20120;-93
2023/04/12 15:51:16;;;;;;;19.92;18.42;;;17.40;99.90;;;;;;4963872;28;20044;-94
2023/04/12 16:19:53;;;;;;;20.48;18.92;;;17.00;99.90;;;;;;4889057;29;20120;-94
2023/04/12 16:32:10;;;;;;;19.85;18.27;;;16.80;99.90;;;;;;5000955;23;20071;-92
2023/04/12 16:44:24;;;;;;;21.00;19.17;;;16.40;99.90;;;;;;5281592;23;20067;-93
2023/04/12 16:46:52;;;;;;;20.80;19.10;;;16.40;99.90;;;;;;4924605;29;20086;-92
2023/04/12 16:49:31;;;;;;;21.10;19.15;;;16.30;99.90;;;;;;4912248;29;20038;-93
2023/04/12 16:52:18;;;;;;;20.73;18.95;;;16.30;99.90;;;;;;4932729;29;20036;-93
2023/04/12 16:54:48;;;;;;;20.95;19.23;;;16.20;99.90;;;;;;5028693;23;20040;-92
2023/04/12 17:10:31;;;;;;;23.75;21.33;;;15.80;99.90;;;;;;5205015;23;20064;-93
2023/04/12 17:13:22;;;;;;;23.83;21.48;;;15.70;99.90;;;;;;4963773;28;20046;-93
2023/04/12 17:24:25;;;;;;;24.45;21.80;;;15.30;99.90;;;;;;4908888;29;20061;-91
2023/04/12 17:27:18;;;;;;;24.17;22.05;;;15.20;99.90;;;;;;4951864;23;20265;-93
2023/04/12 17:42:45;;;;;;;25.77;23.10;;;14.70;99.90;;;;;;4963105;29;20063;-92
2023/04/12 17:45:41;;;;;;;26.25;24.05;;;14.70;99.90;;;;;;4923872;29;20039;-93
2023/04/12 17:48:13;;;;;;;25.83;23.55;;;14.50;99.90;;;;;;4929979;29;20031;-94
2023/04/12 17:50:40;;;;;;;24.27;22.05;;;14.40;99.90;;;;;;4941952;29;20116;-93
2023/04/12 17:53:13;;;;;;;23.38;21.23;;;14.40;99.90;;;;;;4943982;28;20035;-92
2023/04/12 17:59:10;;;;;;;23.42;21.10;;;14.30;99.90;;;;;;4942661;29;20039;-92
2023/04/12 18:01:51;;;;;;;23.67;21.52;;;14.30;99.90;;;;;;4929891;29;20054;-93
2023/04/12 18:04:38;;;;;;;23.70;21.52;;;14.20;99.90;;;;;;4941080;29;20044;-93
2023/04/12 18:07:38;;;;;;;24.05;21.63;;;14.10;99.90;;;;;;4889123;29;20136;-94
2023/04/12 18:18:06;;;;;;;25.08;22.75;;;13.80;99.90;;;;;;4918553;29;20114;-92
2023/04/12 18:20:33;;;;;;;26.23;23.35;;;13.70;99.90;;;;;;4935417;29;20095;-90
2023/04/12 18:23:00;;;;;;;26.70;24.02;;;13.60;99.90;;;;;;4934391;29;20432;-92
2023/04/12 18:25:27;;;;;;;27.90;25.00;;;13.60;99.90;;;;;;4935271;29;20040;-92
2023/04/12 18:27:54;;;;;;;26.05;23.65;;;13.50;99.90;;;;;;4934082;29;20083;-89
2023/04/12 18:30:21;;;;;;;25.33;22.73;;;13.60;99.90;;;;;;4934766;29;20033;-91
2023/04/12 18:32:47;;;;;;;24.95;22.75;;;13.50;99.90;;;;;;4934105;29;20028;-89
2023/04/12 18:35:14;;;;;;;25.08;22.65;;;13.50;99.90;;;;;;4950043;29;20036;-93
2023/04/12 18:37:42;;;;;;;27.13;24.38;;;13.40;99.90;;;;;;4935281;29;20048;-93
2023/04/12 18:40:10;;;;;;;27.88;24.00;;;13.40;99.90;;;;;;4952793;29;20031;-92
2023/04/12 18:42:37;;;;;;;26.75;24.05;;;13.30;99.90;;;;;;4952930;29;20115;-90
2023/04/12 18:45:03;;;;;;;26.75;24.33;;;13.20;99.90;;;;;;4952392;28;20063;-91
2023/04/12 18:47:30;;;;;;;27.50;24.60;;;13.10;99.90;;;;;;4952877;28;20036;-91
2023/04/12 18:49:56;;;;;;;25.83;23.27;;;13.00;99.90;;;;;;4952807;29;20035;-91
2023/04/12 18:52:23;;;;;;;26.73;24.15;;;13.00;99.90;;;;;;4952827;29;20055;-91
2023/04/12 18:54:50;;;;;;;26.35;23.95;;;12.90;99.90;;;;;;4934906;29;20032;-92
2023/04/12 18:57:17;;;;;;;27.98;23.25;;;12.90;99.90;;;;;;4952428;29;20031;-89
2023/04/12 18:59:46;;;;;;;26.45;23.70;;;12.80;99.90;;;;;;4952641;29;20027;-92
2023/04/12 19:02:13;;;;;;;26.33;23.50;;;12.70;99.90;;;;;;4952704;29;20039;-92
2023/04/12 19:04:40;;;;;;;26.00;22.65;;;12.60;99.90;;;;;;4936618;29;20040;-92
2023/04/12 19:07:07;;;;;;;27.05;24.13;;;12.70;99.90;;;;;;4952398;29;20027;-93
2023/04/12 19:09:36;;;;;;;28.35;25.48;;;12.70;99.90;;;;;;4936366;29;20032;-92
2023/04/12 19:12:04;;;;;;;28.63;25.73;;;12.60;99.90;;;;;;4952192;29;20038;-89
2023/04/12 19:14:32;;;;;;;40.42;30.13;;;12.60;99.90;;;;;;4951851;29;20489;-93
2023/04/12 19:17:26;;;;;;;37.70;29.48;;;12.60;99.90;;;;;;4951988;29;20218;-90
2023/04/12 19:19:56;;;;;;;36.83;28.58;;;12.70;99.90;;;;;;4925688;29;20083;-91
2023/04/12 19:22:27;;;;;;;30.52;27.30;;;12.80;99.90;;;;;;4917117;29;20036;-93
2023/04/12 19:24:54;;;;;;;30.92;27.52;;;12.80;99.90;;;;;;4917422;29;20109;-90
2023/04/12 19:27:26;;;;;;;37.03;27.95;;;12.80;99.90;;;;;;4901510;29;20478;-91
2023/04/12 19:29:57;;;;;;;33.03;28.05;;;12.80;99.90;;;;;;4917067;29;20036;-90
2023/04/12 19:32:25;;;;;;;30.10;27.13;;;12.80;99.90;;;;;;4916706;29;20036;-91
2023/04/12 19:35:01;;;;;;;32.67;28.52;;;12.90;99.90;;;;;;4916595;29;20115;-92
2023/04/12 19:37:32;;;;;;;;;;;12.80;99.90;;;;;;4916860;29;20071;-90
2023/04/12 19:40:01;;;;;;;49.00;36.30;;;12.90;99.90;;;;;;4916000;29;20022;-93
2023/04/12 19:42:28;;;;;;;40.03;30.83;;;12.90;99.90;;;;;;4916786;29;20438;-91
2023/04/12 19:44:56;;;;;;;35.17;30.02;;;13.00;99.90;;;;;;4916551;29;20130;-92
2023/04/12 19:47:24;;;;;;;37.33;30.35;;;13.00;99.90;;;;;;4916710;29;20541;-93
2023/04/12 19:49:51;;;;;;;33.72;28.00;;;12.90;99.90;;;;;;4878940;29;20546;-91
2023/04/12 19:52:20;;;;;;;31.15;27.20;;;12.70;99.90;;;;;;4846347;29;20097;-91
2023/04/12 19:54:50;;;;;;;31.30;27.42;;;12.60;99.90;;;;;;4864020;29;20144;-90
2023/04/12 19:57:18;;;;;;;32.45;28.25;;;12.50;99.90;;;;;;4862630;29;20037;-92
2023/04/12 19:59:55;;;;;;;31.35;28.05;;;12.40;99.90;;;;;;4848230;29;20048;-92
2023/04/12 20:02:25;;;;;;;31.35;28.23;;;12.30;99.90;;;;;;4862341;29;20161;-90
2023/04/12 20:04:53;;;;;;;34.65;27.02;;;12.30;99.90;;;;;;4845423;29;20508;-92
2023/04/12 20:07:33;;;;;;;29.55;26.48;;;12.20;99.90;;;;;;4842715;29;20047;-91
2023/04/12 20:10:02;;;;;;;29.50;26.55;;;12.00;99.90;;;;;;4829771;29;20046;-91
2023/04/12 20:12:37;;;;;;;27.98;24.88;;;12.00;99.90;;;;;;4845621;29;20120;-93
2023/04/12 20:15:07;;;;;;;31.27;25.80;;;11.90;99.90;;;;;;4845632;29;20058;-90
2023/04/12 20:17:52;;;;;;;27.63;24.83;;;11.80;99.90;;;;;;4845485;29;20064;-93
2023/04/12 20:20:20;;;;;;;28.15;23.90;;;11.80;99.90;;;;;;4826015;29;20052;-90
2023/04/12 20:22:50;;;;;;;27.75;24.85;;;11.80;99.90;;;;;;4897833;29;20036;-94
2023/04/12 20:25:19;;;;;;;35.28;25.13;;;11.80;99.90;;;;;;4883009;29;20057;-94
2023/04/12 20:27:50;;;;;;;26.92;24.23;;;11.70;99.90;;;;;;4882279;29;20390;-94
2023/04/12 20:30:21;;;;;;;26.35;23.70;;;11.60;99.90;;;;;;4866967;29;20044;-93
2023/04/12 20:32:52;;;;;;;25.90;23.15;;;11.60;99.90;;;;;;4882375;29;20060;-92
2023/04/12 20:35:22;;;;;;;25.88;23.17;;;11.60;99.90;;;;;;4853189;29;20045;-91
2023/04/12 20:37:51;;;;;;;25.90;23.15;;;11.50;99.90;;;;;;4863158;29;20037;-93
2023/04/12 20:40:25;;;;;;;24.80;22.35;;;11.40;99.90;;;;;;4855416;29;20061;-93
2023/04/12 20:42:54;;;;;;;25.67;22.35;;;11.30;99.90;;;;;;4826563;29;20045;-93
2023/04/12 20:45:22;;;;;;;26.08;22.75;;;11.30;99.90;;;;;;4891177;29;20047;-91
2023/04/12 20:47:50;;;;;;;25.60;22.73;;;11.30;99.90;;;;;;4884835;29;20051;-93
2023/04/12 20:50:21;;;;;;;26.98;22.25;;;11.30;99.90;;;;;;4885127;29;20044;-93
2023/04/12 20:52:50;;;;;;;26.10;21.33;;;11.30;99.90;;;;;;4885295;29;20096;-93
2023/04/12 20:55:17;;;;;;;24.58;20.92;;;11.30;99.90;;;;;;4884642;29;20419;-91
2023/04/12 20:57:44;;;;;;;24.08;21.35;;;11.30;99.90;;;;;;4884928;29;20388;-92
2023/04/12 21:00:16;;;;;;;24.45;20.80;;;11.30;99.90;;;;;;4884642;29;20031;-95
2023/04/12 21:02:44;;;;;;;22.75;20.45;;;11.20;99.90;;;;;;4884802;29;20036;-92
2023/04/12 21:05:13;;;;;;;26.58;21.92;;;11.20;99.90;;;;;;4884682;29;20041;-94
2023/04/12 21:07:40;;;;;;;22.67;20.48;;;11.20;99.90;;;;;;4884621;29;20032;-93
2023/04/12 21:10:12;;;;;;;23.05;20.48;;;11.20;99.90;;;;;;4884541;29;20047;-94
2023/04/12 21:12:43;;;;;;;24.63;20.55;;;11.20;99.90;;;;;;4884561;29;20028;-91
2023/04/12 21:15:11;;;;;;;24.10;19.42;;;11.10;99.90;;;;;;4878027;29;20044;-93
2023/04/12 21:17:39;;;;;;;28.15;20.75;;;11.10;99.90;;;;;;4918761;29;20055;-92
2023/04/12 21:20:12;;;;;;;24.42;20.30;;;11.00;99.90;;;;;;4938299;29;20024;-92
2023/04/12 21:22:43;;;;;;;26.17;19.67;;;11.00;99.90;;;;;;4931536;29;20047;-93
2023/04/12 21:25:20;;;;;;;23.60;18.55;;;10.90;99.90;;;;;;4921473;29;20045;-93
2023/04/12 21:27:49;;;;;;;23.88;17.60;;;10.90;99.90;;;;;;4919713;29;20057;-92
2023/04/12 21:30:16;;;;;;;22.13;17.63;;;10.90;99.90;;;;;;4920538;29;20118;-92
2023/04/12 21:32:53;;;;;;;21.88;17.33;;;10.90;99.90;;;;;;4919943;29;20024;-92
2023/04/12 21:35:21;;;;;;;22.85;18.05;;;10.90;99.90;;;;;;4916784;29;20141;-92
2023/04/12 21:37:48;;;;;;;24.98;18.83;;;10.90;99.90;;;;;;4916312;29;20085;-94
2023/04/12 21:40:18;;;;;;;21.48;17.10;;;10.80;99.90;;;;;;4916023;29;20132;-94
2023/04/12 21:42:47;;;;;;;19.77;17.10;;;10.70;99.90;;;;;;4935376;29;20106;-93
2023/04/12 21:45:14;;;;;;;20.58;17.15;;;10.70;99.90;;;;;;4935247;29;20047;-92
2023/04/12 21:47:43;;;;;;;22.60;17.67;;;10.80;99.90;;;;;;4936442;29;20115;-92
2023/04/12 21:50:13;;;;;;;26.15;17.90;;;10.70;99.90;;;;;;4904109;29;20071;-93
2023/04/12 21:52:44;;;;;;;21.20;17.48;;;10.60;99.90;;;;;;4902409;29;20079;-93
2023/04/12 21:55:11;;;;;;;23.77;17.48;;;10.60;99.90;;;;;;4902317;29;20032;-93
2023/04/12 21:57:37;;;;;;;23.00;17.23;;;10.70;99.90;;;;;;4896011;29;20047;-93
2023/04/12 22:00:05;;;;;;;25.70;16.42;;;10.70;99.90;;;;;;4918098;29;20076;-92